Huvudsida
METAR-TAF:

METAR-TAF

Flygplatser :

Evenes, Norge

Harstad-Narviks flygplats. Evenes

latitud: 68-31N, longitud: 016-41E, höjd: 26 m

Aktuellt väderrapport

Denna rapport gjordes för 35 minuter sedan, klockan 02:50 UTC
Vind 7 kt från sydost, varierande mellan ost och syd/sydost
Temperatur -6°C
Fuktighet 53%
Tryck 1001 hPa
Sikt 10 km eller mer

METAR: ENEV 190250Z AUTO 13007KT 080V160 9999 FEW200/// M06/M14 Q1001 RMK WIND 1400FT 10018KT

Tid: 04:25 (03:25 UTC)

Väderprognos

Denna rapport gjordes för 1 timme och 25 minuter sedan, klockan 02:00 UTC
Prognos gäller från 19 kl. 03 UTC till 19 kl. 12 UTC
Vind 8 kt från sydost
Sikt 10 km eller mer
Få moln på en höjd av 5000 ft

TAF: ENEV 190200Z 1903/1912 14008KT 9999 FEW050

Aktuella väderrapporter och prognoser från 4000 flygplatser (METAR- och TAF-rapporter).

De tillgängliga stationerna syns som gula och röda prickar på kartan.

För musen över prickarna för att se namnen på stationerna.

Klicka sedan för att få väderrapporter och prognoser.

För att ändra kartan: Klicka på de gröna knapparna med ett svart kors på för att zooma in; den gröna knappen med ett streck på för att zooma ut; eller på de gröna pilarna för angränsande kartor.


METAR-TAF: